Tyco Dependable — V7DI6 — position and weather

sailwx.info

Track history (hours):
 
Tides and Currents Weather Stations Pressure Air Temp Water Temp Dewpoint Dewpoint Depression Visibility Wind Speed Wind Dir Waves Ship Positions

Tyco Dependable

Last reported at 2017-Oct-18 18:49 UTC. Time now 2017-Oct-18 20:06 UTC.
Position N 28°46' W 014°55'.

MMSI: 269566190.

Date/timePositionNaut miles runAvg speedWind from/ knotsBaromVisibWave heightAir tempDewpointWater temp
2017-Oct-18 18:49N 28°46' W 014°55'411.9
2017-Oct-18 18:29N 28°42' W 014°56'611.7
2017-Oct-18 18:00N 28°37' W 014°59'611.5
2017-Oct-18 17:30N 28°32' W 015°02'611.1
2017-Oct-18 17:00N 28°27' W 015°04'510.7
2017-Oct-18 16:30N 28°22' W 015°07'510.1
2017-Oct-18 16:00N 28°17' W 015°09'5 9.1
2017-Oct-18 15:30N 28°13' W 015°12'5 9.1
2017-Oct-18 15:00N 28°11' W 015°16'6 6.0
2017-Oct-18 14:00N 28°08' W 015°22'0 0.0
2017-Oct-18 13:30N 28°08' W 015°22'0 0.0
2017-Oct-18 13:00N 28°08' W 015°22'0 0.0
2017-Oct-18 12:30N 28°08' W 015°22'0 0.0
2017-Oct-18 12:00N 28°08' W 015°22'0 0.0
2017-Oct-18 11:30N 28°08' W 015°22'0 0.0
2017-Oct-18 11:00N 28°08' W 015°22'0 0.3
2017-Oct-18 10:30N 28°08' W 015°22'0 0.1
2017-Oct-18 10:00N 28°08' W 015°22'0 0.2
2017-Oct-18 09:30N 28°08' W 015°22'2 4.5
2017-Oct-18 09:00N 28°07' W 015°24'1 2.8
2017-Oct-18 08:30N 28°09' W 015°25'0 0.0
2017-Oct-18 08:00N 28°09' W 015°25'0 0.0
2017-Oct-18 07:30N 28°09' W 015°25'0 0.0
2017-Oct-18 07:00N 28°09' W 015°25'0 0.0
2017-Oct-18 06:30N 28°09' W 015°25'0 0.0
2017-Oct-18 06:00N 28°09' W 015°25'0 0.0
2017-Oct-18 05:30N 28°09' W 015°25'0 0.0
2017-Oct-18 04:59N 28°09' W 015°25'0 0.0
2017-Oct-18 04:29N 28°09' W 015°25'0 0.0
2017-Oct-18 03:59N 28°09' W 015°25'0 0.0
2017-Oct-18 03:29N 28°09' W 015°25'0 0.0
2017-Oct-18 02:59N 28°09' W 015°25'0 0.0
2017-Oct-18 02:29N 28°09' W 015°25'0 0.0
2017-Oct-18 01:59N 28°09' W 015°25'0 0.0
2017-Oct-18 01:29N 28°09' W 015°25'0 0.0
2017-Oct-18 00:59N 28°09' W 015°25'0 0.0
2017-Oct-18 00:29N 28°09' W 015°25'0 0.0
2017-Oct-17 23:59N 28°09' W 015°25'0 0.0
2017-Oct-17 23:29N 28°09' W 015°25'0 0.0
2017-Oct-17 22:59N 28°09' W 015°25'0 0.0
2017-Oct-17 22:29N 28°09' W 015°25'0 0.0
2017-Oct-17 21:59N 28°09' W 015°25'0 0.0
2017-Oct-17 21:29N 28°09' W 015°25'0 0.0
2017-Oct-17 20:50N 28°09' W 015°25'0 0.0
2017-Oct-17 20:20N 28°09' W 015°25'0 0.0
2017-Oct-17 19:50N 28°09' W 015°25'0 0.0
2017-Oct-17 19:16N 28°09' W 015°25'0 0.0
2017-Oct-17 18:49N 28°09' W 015°25'0 0.0
2017-Oct-17 18:22N 28°09' W 015°25'0 0.0
2017-Oct-17 17:52N 28°09' W 015°25'0 0.0
2017-Oct-17 17:22N 28°09' W 015°25'0 0.0
2017-Oct-17 16:52N 28°09' W 015°25'0 0.0
2017-Oct-17 16:22N 28°09' W 015°25'0 0.0
2017-Oct-17 15:52N 28°09' W 015°25'0 0.0
2017-Oct-17 15:19N 28°09' W 015°25'0 0.0
2017-Oct-17 14:52N 28°09' W 015°25'0 0.0
2017-Oct-17 14:22N 28°09' W 015°25'0 0.0
2017-Oct-17 13:55N 28°09' W 015°25'0 0.0
2017-Oct-17 13:25N 28°09' W 015°25'0 0.0
2017-Oct-17 12:55N 28°09' W 015°25'0 0.0
2017-Oct-17 12:22N 28°09' W 015°25'0 0.0
2017-Oct-17 11:55N 28°09' W 015°25'0 0.0
2017-Oct-17 11:25N 28°09' W 015°25'0 0.0
2017-Oct-17 10:55N 28°09' W 015°25'0 0.0
2017-Oct-17 10:25N 28°09' W 015°25'0 0.0
2017-Oct-17 09:55N 28°09' W 015°25'0 0.0
2017-Oct-17 09:25N 28°09' W 015°25'0 0.0
2017-Oct-17 08:55N 28°09' W 015°25'0 0.0
2017-Oct-17 08:28N 28°09' W 015°25'0 0.0
2017-Oct-17 07:58N 28°09' W 015°25'0 0.0
2017-Oct-17 07:28N 28°09' W 015°25'0 0.0
2017-Oct-17 06:58N 28°09' W 015°25'0 0.0
2017-Oct-17 06:28N 28°09' W 015°25'0 0.0
2017-Oct-17 05:58N 28°09' W 015°25'0 0.0
2017-Oct-17 05:28N 28°09' W 015°25'0 0.0
2017-Oct-17 04:58N 28°09' W 015°25'0 0.0
2017-Oct-17 04:28N 28°09' W 015°25'0 0.0
2017-Oct-17 03:58N 28°09' W 015°25'0 0.0
2017-Oct-17 03:16N 28°09' W 015°25'0 0.0
2017-Oct-17 02:46N 28°09' W 015°25'0 0.0
2017-Oct-17 02:28N 28°09' W 015°25'0 0.0
2017-Oct-17 01:58N 28°09' W 015°25'0 0.0
2017-Oct-17 01:28N 28°09' W 015°25'0 0.0
2017-Oct-17 00:58N 28°09' W 015°25'0 0.0
2017-Oct-17 00:28N 28°09' W 015°25'0 0.0
2017-Oct-16 23:58N 28°09' W 015°25'0 0.0
2017-Oct-16 23:28N 28°09' W 015°25'0 0.0
2017-Oct-16 22:58N 28°09' W 015°25'0 0.0
2017-Oct-16 22:28N 28°09' W 015°25'0 0.0
2017-Oct-16 21:58N 28°09' W 015°25'0 0.0
2017-Oct-16 21:28N 28°09' W 015°25'0 0.0
2017-Oct-16 20:58N 28°09' W 015°25'0 0.0
2017-Oct-16 20:19N 28°09' W 015°25'0 0.0
2017-Oct-16 19:49N 28°09' W 015°25'0 0.0
2017-Oct-16 19:19N 28°09' W 015°25'0 0.0
2017-Oct-16 18:49N 28°09' W 015°25'0 0.0
2017-Oct-16 18:19N 28°09' W 015°25'0 0.0
2017-Oct-16 17:52N 28°09' W 015°25'0 0.2
2017-Oct-16 17:19N 28°08' W 015°25'0 0.6
2017-Oct-16 17:00N 28°09' W 015°25'1 0.9
2017-Oct-16 16:26N 28°09' W 015°25'0 0.0
2017-Oct-16 15:56N 28°09' W 015°25'0 0.0
2017-Oct-16 15:26N 28°09' W 015°25'0 0.0
2017-Oct-16 14:56N 28°09' W 015°25'0 0.0
2017-Oct-16 13:56N 28°09' W 015°25'0 0.0
2017-Oct-16 13:26N 28°09' W 015°25'0 0.0
2017-Oct-16 12:56N 28°09' W 015°25'0 0.0
2017-Oct-16 12:29N 28°09' W 015°25'0 0.0
2017-Oct-16 11:59N 28°09' W 015°25'0 0.0
2017-Oct-16 11:29N 28°09' W 015°25'0 0.0
2017-Oct-16 10:59N 28°09' W 015°25'0 0.1
2017-Oct-16 10:29N 28°09' W 015°25'0 0.2
2017-Oct-16 09:59N 28°09' W 015°25'0 0.0
2017-Oct-16 09:14N 28°09' W 015°25'0 0.0
2017-Oct-16 08:59N 28°09' W 015°25'0 0.0
2017-Oct-16 08:26N 28°09' W 015°25'0 0.0
2017-Oct-16 07:59N 28°09' W 015°25'0 0.0
2017-Oct-16 07:17N 28°09' W 015°25'0 0.0
2017-Oct-16 06:59N 28°09' W 015°25'0 0.0
2017-Oct-16 06:29N 28°09' W 015°25'0 0.0
2017-Oct-16 05:59N 28°09' W 015°25'0 0.0
2017-Oct-16 05:29N 28°09' W 015°25'0 0.0
2017-Oct-16 04:58N 28°09' W 015°25'0 0.0
2017-Oct-16 04:29N 28°09' W 015°25'0 0.0
2017-Oct-16 03:50N 28°09' W 015°25'0 0.0
2017-Oct-16 03:16N 28°09' W 015°25'0 0.0
2017-Oct-16 02:58N 28°09' W 015°25'0 0.0
2017-Oct-16 02:28N 28°09' W 015°25'0 0.0
2017-Oct-16 01:58N 28°09' W 015°25'0 0.0
2017-Oct-16 01:28N 28°09' W 015°25'0 0.0
2017-Oct-16 00:58N 28°09' W 015°25'0 0.0
2017-Oct-16 00:28N 28°09' W 015°25'0 0.0
2017-Oct-15 23:49N 28°09' W 015°25'0 0.0
2017-Oct-15 23:16N 28°09' W 015°25'0 0.0
2017-Oct-15 22:49N 28°09' W 015°25'0 0.0
2017-Oct-15 22:19N 28°09' W 015°25'0 0.0
2017-Oct-15 21:49N 28°09' W 015°25'0 0.0
2017-Oct-15 21:22N 28°09' W 015°25'0 0.0
2017-Oct-15 20:52N 28°09' W 015°25'0 0.0
2017-Oct-15 20:22N 28°09' W 015°25'0 0.0
2017-Oct-15 19:52N 28°09' W 015°25'0 0.0
2017-Oct-15 19:19N 28°09' W 015°25'0 0.0
2017-Oct-15 18:52N 28°09' W 015°25'0 0.0
2017-Oct-15 18:22N 28°09' W 015°25'0 0.0
2017-Oct-15 17:52N 28°09' W 015°25'0 0.0
2017-Oct-15 17:22N 28°09' W 015°25'0 0.0
2017-Oct-15 16:52N 28°09' W 015°25'0 0.0
2017-Oct-15 16:22N 28°09' W 015°25'0 0.0
2017-Oct-15 15:52N 28°09' W 015°25'0 0.0
2017-Oct-15 15:25N 28°09' W 015°25'0 0.0
2017-Oct-15 14:55N 28°09' W 015°25'0 0.2
2017-Oct-15 13:55N 28°09' W 015°25'0 0.0
2017-Oct-15 13:25N 28°09' W 015°25'0 0.0
2017-Oct-15 12:52N 28°09' W 015°25'0 0.0
2017-Oct-15 12:25N 28°09' W 015°25'0 0.0
2017-Oct-15 11:52N 28°09' W 015°25'0 0.0
2017-Oct-15 11:28N 28°09' W 015°25'0 0.0
2017-Oct-15 10:58N 28°09' W 015°25'0 0.0
2017-Oct-15 10:25N 28°09' W 015°25'0 0.0
2017-Oct-15 09:58N 28°09' W 015°25'0 0.0
2017-Oct-15 09:28N 28°09' W 015°25'0 0.0
2017-Oct-15 08:58N 28°09' W 015°25'0 0.0
2017-Oct-15 08:28N 28°09' W 015°25'0 0.0
2017-Oct-15 07:58N 28°09' W 015°25'0 0.0
2017-Oct-15 07:28N 28°09' W 015°25'0 0.0
2017-Oct-15 06:58N 28°09' W 015°25'0 0.0
2017-Oct-15 06:28N 28°09' W 015°25'0 0.0
2017-Oct-15 05:58N 28°09' W 015°25'0 0.0
2017-Oct-15 05:28N 28°09' W 015°25'0 0.0
2017-Oct-15 04:58N 28°09' W 015°25'0 0.0
2017-Oct-15 04:28N 28°09' W 015°25'0 0.0
2017-Oct-15 03:46N 28°09' W 015°25'0 0.0
2017-Oct-15 03:28N 28°09' W 015°25'0 0.0
2017-Oct-15 02:43N 28°09' W 015°25'0 0.0
2017-Oct-15 02:28N 28°09' W 015°25'0 0.0
2017-Oct-15 01:58N 28°09' W 015°25'0 0.0
2017-Oct-15 01:28N 28°09' W 015°25'0 0.0
2017-Oct-15 00:58N 28°09' W 015°25'0 0.0
2017-Oct-15 00:28N 28°09' W 015°25'0 0.0
2017-Oct-14 23:58N 28°09' W 015°25'0 0.0
2017-Oct-14 23:19N 28°09' W 015°25'0 0.0
2017-Oct-14 22:49N 28°09' W 015°25'0 0.0
2017-Oct-14 22:19N 28°09' W 015°25'0 0.0
2017-Oct-14 21:49N 28°09' W 015°25'0 0.0
2017-Oct-14 21:22N 28°09' W 015°25'0 0.0
2017-Oct-14 20:52N 28°09' W 015°25'0 0.0
2017-Oct-14 20:22N 28°09' W 015°25'0 0.0
2017-Oct-14 19:52N 28°09' W 015°25'0 0.0
2017-Oct-14 19:19N 28°09' W 015°25'0 0.0
2017-Oct-14 18:52N 28°09' W 015°25'0 0.0
2017-Oct-14 18:22N 28°09' W 015°25'0 0.0
2017-Oct-14 17:52N 28°09' W 015°25'0 0.0
2017-Oct-14 17:21N 28°09' W 015°25'0 0.0
2017-Oct-14 16:52N 28°09' W 015°25'0 0.0
2017-Oct-14 16:24N 28°09' W 015°25'0 0.0
2017-Oct-14 15:54N 28°09' W 015°25'0 0.0
2017-Oct-14 15:24N 28°09' W 015°25'0 0.0
2017-Oct-14 14:51N 28°09' W 015°25'0 0.0
2017-Oct-14 14:21N 28°09' W 015°25'0 0.0
2017-Oct-14 13:54N 28°09' W 015°25'0 0.0
2017-Oct-14 13:24N 28°09' W 015°25'0 0.0
2017-Oct-14 12:54N 28°09' W 015°25'0 0.0
2017-Oct-14 12:24N 28°09' W 015°25'0 0.0
2017-Oct-14 11:54N 28°09' W 015°25'0 0.0
2017-Oct-14 11:24N 28°09' W 015°25'0 0.0
2017-Oct-14 10:57N 28°09' W 015°25'0 0.0
2017-Oct-14 10:27N 28°09' W 015°25'0 0.0
2017-Oct-14 09:54N 28°09' W 015°25'0 0.0
2017-Oct-14 09:24N 28°09' W 015°25'0 0.0
2017-Oct-14 08:42N 28°09' W 015°25'0 0.0
2017-Oct-14 08:27N 28°09' W 015°25'0 0.0
2017-Oct-14 07:57N 28°09' W 015°25'0 0.0
2017-Oct-14 07:27N 28°09' W 015°25'0 0.0
2017-Oct-14 06:57N 28°09' W 015°25'0 0.0
2017-Oct-14 06:30N 28°09' W 015°25'0 0.0
2017-Oct-14 06:00N 28°09' W 015°25'0 0.0
2017-Oct-14 05:30N 28°09' W 015°25'0 0.0
2017-Oct-14 04:54N 28°09' W 015°25'0 0.0
2017-Oct-14 04:30N 28°09' W 015°25'0 0.0
2017-Oct-14 04:00N 28°09' W 015°25'0 0.0
2017-Oct-14 03:30N 28°09' W 015°25'0 0.0
2017-Oct-14 02:45N 28°09' W 015°25'0 0.0
2017-Oct-14 02:15N 28°09' W 015°25'0 0.0
2017-Oct-14 02:00N 28°09' W 015°25'0 0.0
2017-Oct-14 01:30N 28°09' W 015°25'0 0.0
2017-Oct-14 01:00N 28°09' W 015°25'0 0.0
2017-Oct-14 00:27N 28°09' W 015°25'0 0.0
2017-Oct-14 00:00N 28°09' W 015°25'0 0.0
2017-Oct-13 23:30N 28°09' W 015°25'0 0.0
2017-Oct-13 23:00N 28°09' W 015°25'0 0.0
2017-Oct-13 22:30N 28°09' W 015°25'0 0.0
2017-Oct-13 21:48N 28°09' W 015°25'0 0.0
2017-Oct-13 21:30N 28°09' W 015°25'0 0.0
2017-Oct-13 20:45N 28°09' W 015°25'0 0.0
2017-Oct-13 20:21N 28°09' W 015°25'0 0.0
2017-Oct-13 20:00N 28°09' W 015°25'0 0.0
2017-Oct-13 19:30N 28°09' W 015°25'0 0.0
2017-Oct-13 19:00N 28°09' W 015°25'0 0.0
2017-Oct-13 18:30N 28°09' W 015°25'0 0.0
2017-Oct-13 17:51N 28°09' W 015°25'0 0.0
2017-Oct-13 17:21N 28°09' W 015°25'0 0.0
2017-Oct-13 16:48N 28°09' W 015°25'0 0.0
2017-Oct-13 16:21N 28°09' W 015°25'0 0.0
2017-Oct-13 15:48N 28°09' W 015°25'0 0.0
2017-Oct-13 15:24N 28°09' W 015°25'0 0.0
2017-Oct-13 14:54N 28°09' W 015°25'0 0.0
2017-Oct-13 14:21N 28°09' W 015°25'0 0.0
2017-Oct-13 13:54N 28°09' W 015°25'0 0.0
2017-Oct-13 13:21N 28°09' W 015°25'0 0.0
2017-Oct-13 12:54N 28°09' W 015°25'0 0.0
2017-Oct-13 12:24N 28°09' W 015°25'0 0.0
2017-Oct-13 11:54N 28°09' W 015°25'0 0.0
2017-Oct-13 11:21N 28°09' W 015°25'0 0.0
2017-Oct-13 10:57N 28°09' W 015°25'0 0.0
2017-Oct-13 10:27N 28°09' W 015°25'0 0.0
2017-Oct-13 09:57N 28°09' W 015°25'0 0.0
2017-Oct-13 09:24N 28°09' W 015°25'0 0.0
2017-Oct-13 08:42N 28°09' W 015°25'0 0.0
2017-Oct-13 08:27N 28°09' W 015°25'0 0.0
2017-Oct-13 07:57N 28°09' W 015°25'0 0.0
2017-Oct-13 07:27N 28°09' W 015°25'0 0.0
2017-Oct-13 07:00N 28°09' W 015°25'0 0.0
2017-Oct-13 06:30N 28°09' W 015°25'0 0.0
2017-Oct-13 06:00N 28°09' W 015°25'0 0.0
2017-Oct-13 05:29N 28°09' W 015°25'0 0.0
2017-Oct-13 04:59N 28°09' W 015°25'0 0.0
2017-Oct-13 04:29N 28°09' W 015°25'0 0.0
2017-Oct-13 03:59N 28°09' W 015°25'0 0.0
2017-Oct-13 03:29N 28°09' W 015°25'0 0.0
2017-Oct-13 02:59N 28°09' W 015°25'0 0.0
2017-Oct-13 02:14N 28°09' W 015°25'0 0.0
2017-Oct-13 01:59N 28°09' W 015°25'0 0.0
2017-Oct-13 01:29N 28°09' W 015°25'0 0.0
2017-Oct-13 00:59N 28°09' W 015°25'0 0.0
2017-Oct-13 00:29N 28°09' W 015°25'0 0.0
2017-Oct-12 23:59N 28°09' W 015°25'0 0.0
2017-Oct-12 23:29N 28°09' W 015°25'0 0.0
2017-Oct-12 22:47N 28°09' W 015°25'0 0.0
2017-Oct-12 22:29N 28°09' W 015°25'0 0.0
2017-Oct-12 21:59N 28°09' W 015°25'0 0.0
2017-Oct-12 21:17N 28°09' W 015°25'0 0.0
2017-Oct-12 20:59N 28°09' W 015°25'0 0.0
2017-Oct-12 20:14N 28°09' W 015°25'0 0.0
2017-Oct-12 19:50N 28°09' W 015°25'0 0.0
2017-Oct-12 19:29N 28°09' W 015°25'0 0.0
2017-Oct-12 18:59N 28°09' W 015°25'0 0.0
2017-Oct-12 18:29N 28°09' W 015°25'0 0.0
2017-Oct-12 17:59N 28°09' W 015°25'0 0.0
2017-Oct-12 17:20N 28°09' W 015°25'0 0.0
2017-Oct-12 16:50N 28°09' W 015°25'0 0.0
2017-Oct-12 16:20N 28°09' W 015°25'0 0.0
2017-Oct-12 15:50N 28°09' W 015°25'0 0.0
2017-Oct-12 15:23N 28°09' W 015°25'0 0.0
2017-Oct-12 14:50N 28°09' W 015°25'0 0.0
2017-Oct-12 14:23N 28°09' W 015°25'0 0.0
2017-Oct-12 13:50N 28°09' W 015°25'0 0.0
2017-Oct-12 13:23N 28°09' W 015°25'0 0.0
2017-Oct-12 12:53N 28°09' W 015°25'0 0.0
2017-Oct-12 12:23N 28°09' W 015°25'0 0.0
2017-Oct-12 11:53N 28°09' W 015°25'0 0.0
2017-Oct-12 11:23N 28°09' W 015°25'0 0.0
2017-Oct-12 10:50N 28°09' W 015°25'0 0.0
2017-Oct-12 10:26N 28°09' W 015°25'0 0.0
2017-Oct-12 09:56N 28°09' W 015°25'0 0.0
2017-Oct-12 09:26N 28°09' W 015°25'0 0.0
2017-Oct-12 08:50N 28°09' W 015°25'0 0.0
2017-Oct-12 08:26N 28°09' W 015°25'0 0.0
2017-Oct-12 07:56N 28°09' W 015°25'0 0.0
2017-Oct-12 07:26N 28°09' W 015°25'0 0.0
2017-Oct-12 06:56N 28°09' W 015°25'0 0.0
2017-Oct-12 06:23N 28°09' W 015°25'0 0.0
2017-Oct-12 05:56N 28°09' W 015°25'0 0.0
2017-Oct-12 05:29N 28°09' W 015°25'0 0.0
2017-Oct-12 04:56N 28°09' W 015°25'0 0.0
2017-Oct-12 04:29N 28°09' W 015°25'0 0.0
2017-Oct-12 03:59N 28°09' W 015°25'0 0.0
2017-Oct-12 03:29N 28°09' W 015°25'0 0.0
2017-Oct-12 02:59N 28°09' W 015°25'0 0.0
2017-Oct-12 02:29N 28°09' W 015°25'0 0.0
2017-Oct-12 01:59N 28°09' W 015°25'0 0.0
2017-Oct-12 01:29N 28°09' W 015°25'0 0.0
2017-Oct-12 00:44N 28°09' W 015°25'0 0.0
2017-Oct-12 00:29N 28°09' W 015°25'0 0.0
2017-Oct-11 23:59N 28°09' W 015°25'0 0.0
2017-Oct-11 23:26N 28°09' W 015°25'0 0.0
2017-Oct-11 22:59N 28°09' W 015°25'0 0.0
2017-Oct-11 22:29N 28°09' W 015°25'0 0.0
2017-Oct-11 21:02N 28°09' W 015°25'0 0.0
2017-Oct-11 20:47N 28°09' W 015°25'0 0.0
2017-Oct-11 20:29N 28°09' W 015°25'0 0.0
2017-Oct-11 19:59N 28°09' W 015°25'0 0.0
2017-Oct-11 19:29N 28°09' W 015°25'0 0.0
2017-Oct-11 18:44N 28°09' W 015°25'0 0.0
2017-Oct-11 18:14N 28°09' W 015°25'0 0.0
2017-Oct-11 17:58N 28°09' W 015°25'0 0.0
2017-Oct-11 17:19N 28°09' W 015°25'0 0.0
2017-Oct-11 16:49N 28°09' W 015°25'0 0.0
2017-Oct-10 23:58N 28°09' W 015°25'0 0.0
2017-Oct-10 23:28N 28°09' W 015°25'0 0.0
2017-Oct-10 22:46N 28°09' W 015°25'0 0.0
2017-Oct-10 22:28N 28°09' W 015°25'0 0.0
2017-Oct-10 21:46N 28°09' W 015°25'0 0.0
2017-Oct-10 21:16N 28°09' W 015°25'0 0.0
2017-Oct-10 20:58N 28°09' W 015°25'0 0.0
2017-Oct-10 20:28N 28°09' W 015°25'0 0.0
2017-Oct-10 19:58N 28°09' W 015°25'0 0.0
2017-Oct-10 19:28N 28°09' W 015°25'0 0.0
2017-Oct-10 18:58N 28°09' W 015°25'0 0.0
2017-Oct-10 18:28N 28°09' W 015°25'0 0.0
2017-Oct-10 17:58N 28°09' W 015°25'0 0.0
2017-Oct-10 17:28N 28°09' W 015°25'0 0.0
2017-Oct-10 16:49N 28°09' W 015°25'0 0.0
2017-Oct-10 16:19N 28°09' W 015°25'0 0.0
2017-Oct-10 15:49N 28°09' W 015°25'0 0.0
2017-Oct-10 15:19N 28°09' W 015°25'0 0.0
2017-Oct-10 14:52N 28°09' W 015°25'0 0.0
2017-Oct-10 13:52N 28°09' W 015°25'0 0.0
2017-Oct-10 13:22N 28°09' W 015°25'0 0.0
2017-Oct-10 12:52N 28°09' W 015°25'0 0.0
2017-Oct-10 12:22N 28°09' W 015°25'0 0.0
2017-Oct-10 11:49N 28°09' W 015°25'0 0.0
2017-Oct-10 11:19N 28°09' W 015°25'0 0.0
2017-Oct-10 10:52N 28°09' W 015°25'0 0.0
2017-Oct-10 10:22N 28°09' W 015°25'0 0.0
2017-Oct-10 09:52N 28°09' W 015°25'0 0.0
2017-Oct-10 09:19N 28°09' W 015°25'0 0.0
2017-Oct-10 08:37N 28°09' W 015°25'0 0.0
2017-Oct-10 08:22N 28°09' W 015°25'0 0.0
2017-Oct-10 07:55N 28°09' W 015°25'0 0.0
2017-Oct-10 07:25N 28°09' W 015°25'0 0.0
2017-Oct-10 06:55N 28°09' W 015°25'0 0.0
2017-Oct-10 06:24N 28°09' W 015°25'0 0.0
2017-Oct-10 05:39N 28°09' W 015°25'0 0.0
2017-Oct-10 05:21N 28°09' W 015°25'0 0.0
2017-Oct-10 04:57N 28°09' W 015°25'0 0.0
2017-Oct-10 04:21N 28°09' W 015°25'0 0.0
2017-Oct-10 03:57N 28°09' W 015°25'0 0.0
2017-Oct-10 03:27N 28°09' W 015°25'0 0.0
2017-Oct-10 02:54N 28°09' W 015°25'0 0.0
2017-Oct-10 02:27N 28°09' W 015°25'0 0.0
2017-Oct-10 01:57N 28°09' W 015°25'0 0.0
2017-Oct-10 01:27N 28°09' W 015°25'0 0.0
2017-Oct-10 00:57N 28°09' W 015°25'0 0.0
2017-Oct-10 00:24N 28°09' W 015°25'0 0.0
2017-Oct-09 23:57N 28°09' W 015°25'0 0.0
2017-Oct-09 23:30N 28°09' W 015°25'0 0.0
2017-Oct-09 23:00N 28°09' W 015°25'0 0.0
2017-Oct-09 22:30N 28°09' W 015°25'0 0.0
2017-Oct-09 21:57N 28°09' W 015°25'0 0.0
2017-Oct-09 21:30N 28°09' W 015°25'0 0.0
2017-Oct-09 21:00N 28°09' W 015°25'0 0.0
2017-Oct-09 20:30N 28°09' W 015°25'0 0.0
2017-Oct-09 20:00N 28°09' W 015°25'0 0.0
2017-Oct-09 19:30N 28°09' W 015°25'0 0.0
2017-Oct-09 19:00N 28°09' W 015°25'0 0.0
2017-Oct-09 18:30N 28°09' W 015°25'0 0.0
2017-Oct-09 18:00N 28°09' W 015°25'0 0.0
2017-Oct-09 17:18N 28°09' W 015°25'0 0.0
2017-Oct-09 16:57N 28°09' W 015°25'0 0.0
2017-Oct-09 16:30N 28°09' W 015°25'0 0.0
2017-Oct-09 15:48N 28°09' W 015°25'0 0.0
2017-Oct-09 15:30N 28°09' W 015°25'0 0.0
2017-Oct-09 15:00N 28°09' W 015°25'0 0.0
2017-Oct-09 14:30N 28°09' W 015°25'0 0.0
2017-Oct-09 14:00N 28°09' W 015°25'0 0.0
2017-Oct-09 13:30N 28°09' W 015°25'0 0.0
2017-Oct-09 13:00N 28°09' W 015°25'0 0.0
2017-Oct-09 12:30N 28°09' W 015°25'0 0.0
2017-Oct-09 12:00N 28°09' W 015°25'0 0.0
2017-Oct-09 11:30N 28°09' W 015°25'0 0.0
2017-Oct-09 10:51N 28°09' W 015°25'0 0.0
2017-Oct-09 10:21N 28°09' W 015°25'0 0.0
2017-Oct-09 09:48N 28°09' W 015°25'0 0.0
2017-Oct-09 09:21N 28°09' W 015°25'0 0.0
2017-Oct-09 08:51N 28°09' W 015°25'0 0.0
2017-Oct-09 08:24N 28°09' W 015°25'0 0.0
2017-Oct-09 07:54N 28°09' W 015°25'0 0.0
2017-Oct-09 07:21N 28°09' W 015°25'0 0.0
2017-Oct-09 06:54N 28°09' W 015°25'0 0.0
2017-Oct-09 06:24N 28°09' W 015°25'0 0.0
2017-Oct-09 05:51N 28°09' W 015°25'0 0.0
2017-Oct-09 05:24N 28°09' W 015°25'0 0.0
2017-Oct-09 04:54N 28°09' W 015°25'0 0.0
2017-Oct-09 04:27N 28°09' W 015°25'0 0.0
2017-Oct-09 03:54N 28°09' W 015°25'0 0.0
2017-Oct-09 03:27N 28°09' W 015°25'0 0.0
2017-Oct-09 02:57N 28°09' W 015°25'0 0.0
2017-Oct-09 02:27N 28°09' W 015°25'0 0.0
2017-Oct-09 01:54N 28°09' W 015°25'0 0.0
2017-Oct-09 01:27N 28°09' W 015°25'0 0.0
2017-Oct-09 00:54N 28°09' W 015°25'0 0.0
2017-Oct-09 00:24N 28°09' W 015°25'0 0.0
2017-Oct-08 23:54N 28°09' W 015°25'0 0.0
2017-Oct-08 23:30N 28°09' W 015°25'0 0.0
2017-Oct-08 22:57N 28°09' W 015°25'0 0.0
2017-Oct-08 22:27N 28°09' W 015°25'0 0.0
2017-Oct-08 22:00N 28°09' W 015°25'0 0.0
2017-Oct-08 21:30N 28°09' W 015°25'0 0.0
2017-Oct-08 21:00N 28°09' W 015°25'0 0.0
2017-Oct-08 20:30N 28°09' W 015°25'0 0.0
2017-Oct-08 19:57N 28°09' W 015°25'0 0.0
2017-Oct-08 19:30N 28°09' W 015°25'0 0.0
2017-Oct-08 19:00N 28°09' W 015°25'  
Track history (hours):
 
Tides and Currents Weather Stations Pressure Air Temp Water Temp Dewpoint Dewpoint Depression Visibility Wind Speed Wind Dir Waves Ship Positions

Tyco Dependable

Last reported at 2017-Oct-18 18:49 UTC. Time now 2017-Oct-18 20:06 UTC.
Position N 28°46' W 014°55'.

MMSI: 269566190.

Date/timePositionNaut miles runAvg speedWind from/ knotsBaromVisibWave heightAir tempDewpointWater temp
2017-Oct-18 18:49N 28°46' W 014°55'411.9
2017-Oct-18 18:29N 28°42' W 014°56'611.7
2017-Oct-18 18:00N 28°37' W 014°59'611.5
2017-Oct-18 17:30N 28°32' W 015°02'611.1
2017-Oct-18 17:00N 28°27' W 015°04'510.7
2017-Oct-18 16:30N 28°22' W 015°07'510.1
2017-Oct-18 16:00N 28°17' W 015°09'5 9.1
2017-Oct-18 15:30N 28°13' W 015°12'5 9.1
2017-Oct-18 15:00N 28°11' W 015°16'6 6.0
2017-Oct-18 14:00N 28°08' W 015°22'0 0.0
2017-Oct-18 13:30N 28°08' W 015°22'0 0.0
2017-Oct-18 13:00N 28°08' W 015°22'0 0.0
2017-Oct-18 12:30N 28°08' W 015°22'0 0.0
2017-Oct-18 12:00N 28°08' W 015°22'0 0.0
2017-Oct-18 11:30N 28°08' W 015°22'0 0.0
2017-Oct-18 11:00N 28°08' W 015°22'0 0.3
2017-Oct-18 10:30N 28°08' W 015°22'0 0.1
2017-Oct-18 10:00N 28°08' W 015°22'0 0.2
2017-Oct-18 09:30N 28°08' W 015°22'2 4.5
2017-Oct-18 09:00N 28°07' W 015°24'1 2.8
2017-Oct-18 08:30N 28°09' W 015°25'0 0.0
2017-Oct-18 08:00N 28°09' W 015°25'0 0.0
2017-Oct-18 07:30N 28°09' W 015°25'0 0.0
2017-Oct-18 07:00N 28°09' W 015°25'0 0.0
2017-Oct-18 06:30N 28°09' W 015°25'0 0.0
2017-Oct-18 06:00N 28°09' W 015°25'0 0.0
2017-Oct-18 05:30N 28°09' W 015°25'0 0.0
2017-Oct-18 04:59N 28°09' W 015°25'0 0.0
2017-Oct-18 04:29N 28°09' W 015°25'0 0.0
2017-Oct-18 03:59N 28°09' W 015°25'0 0.0
2017-Oct-18 03:29N 28°09' W 015°25'0 0.0
2017-Oct-18 02:59N 28°09' W 015°25'0 0.0
2017-Oct-18 02:29N 28°09' W 015°25'0 0.0
2017-Oct-18 01:59N 28°09' W 015°25'0 0.0
2017-Oct-18 01:29N 28°09' W 015°25'0 0.0
2017-Oct-18 00:59N 28°09' W 015°25'0 0.0
2017-Oct-18 00:29N 28°09' W 015°25'0 0.0
2017-Oct-17 23:59N 28°09' W 015°25'0 0.0
2017-Oct-17 23:29N 28°09' W 015°25'0 0.0
2017-Oct-17 22:59N 28°09' W 015°25'0 0.0
2017-Oct-17 22:29N 28°09' W 015°25'0 0.0
2017-Oct-17 21:59N 28°09' W 015°25'0 0.0
2017-Oct-17 21:29N 28°09' W 015°25'0 0.0
2017-Oct-17 20:50N 28°09' W 015°25'0 0.0
2017-Oct-17 20:20N 28°09' W 015°25'0 0.0
2017-Oct-17 19:50N 28°09' W 015°25'0 0.0
2017-Oct-17 19:16N 28°09' W 015°25'0 0.0
2017-Oct-17 18:49N 28°09' W 015°25'0 0.0
2017-Oct-17 18:22N 28°09' W 015°25'0 0.0
2017-Oct-17 17:52N 28°09' W 015°25'0 0.0
2017-Oct-17 17:22N 28°09' W 015°25'0 0.0
2017-Oct-17 16:52N 28°09' W 015°25'0 0.0
2017-Oct-17 16:22N 28°09' W 015°25'0 0.0
2017-Oct-17 15:52N 28°09' W 015°25'0 0.0
2017-Oct-17 15:19N 28°09' W 015°25'0 0.0
2017-Oct-17 14:52N 28°09' W 015°25'0 0.0
2017-Oct-17 14:22N 28°09' W 015°25'0 0.0
2017-Oct-17 13:55N 28°09' W 015°25'0 0.0
2017-Oct-17 13:25N 28°09' W 015°25'0 0.0
2017-Oct-17 12:55N 28°09' W 015°25'0 0.0
2017-Oct-17 12:22N 28°09' W 015°25'0 0.0
2017-Oct-17 11:55N 28°09' W 015°25'0 0.0
2017-Oct-17 11:25N 28°09' W 015°25'0 0.0
2017-Oct-17 10:55N 28°09' W 015°25'0 0.0
2017-Oct-17 10:25N 28°09' W 015°25'0 0.0
2017-Oct-17 09:55N 28°09' W 015°25'0 0.0
2017-Oct-17 09:25N 28°09' W 015°25'0 0.0
2017-Oct-17 08:55N 28°09' W 015°25'0 0.0
2017-Oct-17 08:28N 28°09' W 015°25'0 0.0
2017-Oct-17 07:58N 28°09' W 015°25'0 0.0
2017-Oct-17 07:28N 28°09' W 015°25'0 0.0
2017-Oct-17 06:58N 28°09' W 015°25'0 0.0
2017-Oct-17 06:28N 28°09' W 015°25'0 0.0
2017-Oct-17 05:58N 28°09' W 015°25'0 0.0
2017-Oct-17 05:28N 28°09' W 015°25'0 0.0
2017-Oct-17 04:58N 28°09' W 015°25'0 0.0
2017-Oct-17 04:28N 28°09' W 015°25'0 0.0
2017-Oct-17 03:58N 28°09' W 015°25'0 0.0
2017-Oct-17 03:16N 28°09' W 015°25'0 0.0
2017-Oct-17 02:46N 28°09' W 015°25'0 0.0
2017-Oct-17 02:28N 28°09' W 015°25'0 0.0
2017-Oct-17 01:58N 28°09' W 015°25'0 0.0
2017-Oct-17 01:28N 28°09' W 015°25'0 0.0
2017-Oct-17 00:58N 28°09' W 015°25'0 0.0
2017-Oct-17 00:28N 28°09' W 015°25'0 0.0
2017-Oct-16 23:58N 28°09' W 015°25'0 0.0
2017-Oct-16 23:28N 28°09' W 015°25'0 0.0
2017-Oct-16 22:58N 28°09' W 015°25'0 0.0
2017-Oct-16 22:28N 28°09' W 015°25'0 0.0
2017-Oct-16 21:58N 28°09' W 015°25'0 0.0
2017-Oct-16 21:28N 28°09' W 015°25'0 0.0
2017-Oct-16 20:58N 28°09' W 015°25'0 0.0
2017-Oct-16 20:19N 28°09' W 015°25'0 0.0
2017-Oct-16 19:49N 28°09' W 015°25'0 0.0
2017-Oct-16 19:19N 28°09' W 015°25'0 0.0
2017-Oct-16 18:49N 28°09' W 015°25'0 0.0
2017-Oct-16 18:19N 28°09' W 015°25'0 0.0
2017-Oct-16 17:52N 28°09' W 015°25'0 0.2
2017-Oct-16 17:19N 28°08' W 015°25'0 0.6
2017-Oct-16 17:00N 28°09' W 015°25'1 0.9
2017-Oct-16 16:26N 28°09' W 015°25'0 0.0
2017-Oct-16 15:56N 28°09' W 015°25'0 0.0
2017-Oct-16 15:26N 28°09' W 015°25'0 0.0
2017-Oct-16 14:56N 28°09' W 015°25'0 0.0
2017-Oct-16 13:56N 28°09' W 015°25'0 0.0
2017-Oct-16 13:26N 28°09' W 015°25'0 0.0
2017-Oct-16 12:56N 28°09' W 015°25'0 0.0
2017-Oct-16 12:29N 28°09' W 015°25'0 0.0
2017-Oct-16 11:59N 28°09' W 015°25'0 0.0
2017-Oct-16 11:29N 28°09' W 015°25'0 0.0
2017-Oct-16 10:59N 28°09' W 015°25'0 0.1
2017-Oct-16 10:29N 28°09' W 015°25'0 0.2
2017-Oct-16 09:59N 28°09' W 015°25'0 0.0
2017-Oct-16 09:14N 28°09' W 015°25'0 0.0
2017-Oct-16 08:59N 28°09' W 015°25'0 0.0
2017-Oct-16 08:26N 28°09' W 015°25'0 0.0
2017-Oct-16 07:59N 28°09' W 015°25'0 0.0
2017-Oct-16 07:17N 28°09' W 015°25'0 0.0
2017-Oct-16 06:59N 28°09' W 015°25'0 0.0
2017-Oct-16 06:29N 28°09' W 015°25'0 0.0
2017-Oct-16 05:59N 28°09' W 015°25'0 0.0
2017-Oct-16 05:29N 28°09' W 015°25'0 0.0
2017-Oct-16 04:58N 28°09' W 015°25'0 0.0
2017-Oct-16 04:29N 28°09' W 015°25'0 0.0
2017-Oct-16 03:50N 28°09' W 015°25'0 0.0
2017-Oct-16 03:16N 28°09' W 015°25'0 0.0
2017-Oct-16 02:58N 28°09' W 015°25'0 0.0
2017-Oct-16 02:28N 28°09' W 015°25'0 0.0
2017-Oct-16 01:58N 28°09' W 015°25'0 0.0
2017-Oct-16 01:28N 28°09' W 015°25'0 0.0
2017-Oct-16 00:58N 28°09' W 015°25'0 0.0
2017-Oct-16 00:28N 28°09' W 015°25'0 0.0
2017-Oct-15 23:49N 28°09' W 015°25'0 0.0
2017-Oct-15 23:16N 28°09' W 015°25'0 0.0
2017-Oct-15 22:49N 28°09' W 015°25'0 0.0
2017-Oct-15 22:19N 28°09' W 015°25'0 0.0
2017-Oct-15 21:49N 28°09' W 015°25'0 0.0
2017-Oct-15 21:22N 28°09' W 015°25'0 0.0
2017-Oct-15 20:52N 28°09' W 015°25'0 0.0
2017-Oct-15 20:22N 28°09' W 015°25'0 0.0
2017-Oct-15 19:52N 28°09' W 015°25'0 0.0
2017-Oct-15 19:19N 28°09' W 015°25'0 0.0
2017-Oct-15 18:52N 28°09' W 015°25'0 0.0
2017-Oct-15 18:22N 28°09' W 015°25'0 0.0
2017-Oct-15 17:52N 28°09' W 015°25'0 0.0
2017-Oct-15 17:22N 28°09' W 015°25'0 0.0
2017-Oct-15 16:52N 28°09' W 015°25'0 0.0
2017-Oct-15 16:22N 28°09' W 015°25'0 0.0
2017-Oct-15 15:52N 28°09' W 015°25'0 0.0
2017-Oct-15 15:25N 28°09' W 015°25'0 0.0
2017-Oct-15 14:55N 28°09' W 015°25'0 0.2
2017-Oct-15 13:55N 28°09' W 015°25'0 0.0
2017-Oct-15 13:25N 28°09' W 015°25'0 0.0
2017-Oct-15 12:52N 28°09' W 015°25'0 0.0
2017-Oct-15 12:25N 28°09' W 015°25'0 0.0
2017-Oct-15 11:52N 28°09' W 015°25'0 0.0
2017-Oct-15 11:28N 28°09' W 015°25'0 0.0
2017-Oct-15 10:58N 28°09' W 015°25'0 0.0
2017-Oct-15 10:25N 28°09' W 015°25'0 0.0
2017-Oct-15 09:58N 28°09' W 015°25'0 0.0
2017-Oct-15 09:28N 28°09' W 015°25'0 0.0
2017-Oct-15 08:58N 28°09' W 015°25'0 0.0
2017-Oct-15 08:28N 28°09' W 015°25'0 0.0
2017-Oct-15 07:58N 28°09' W 015°25'0 0.0
2017-Oct-15 07:28N 28°09' W 015°25'0 0.0
2017-Oct-15 06:58N 28°09' W 015°25'0 0.0
2017-Oct-15 06:28N 28°09' W 015°25'0 0.0
2017-Oct-15 05:58N 28°09' W 015°25'0 0.0
2017-Oct-15 05:28N 28°09' W 015°25'0 0.0
2017-Oct-15 04:58N 28°09' W 015°25'0 0.0
2017-Oct-15 04:28N 28°09' W 015°25'0 0.0
2017-Oct-15 03:46N 28°09' W 015°25'0 0.0
2017-Oct-15 03:28N 28°09' W 015°25'0 0.0
2017-Oct-15 02:43N 28°09' W 015°25'0 0.0
2017-Oct-15 02:28N 28°09' W 015°25'0 0.0
2017-Oct-15 01:58N 28°09' W 015°25'0 0.0
2017-Oct-15 01:28N 28°09' W 015°25'0 0.0
2017-Oct-15 00:58N 28°09' W 015°25'0 0.0
2017-Oct-15 00:28N 28°09' W 015°25'0 0.0
2017-Oct-14 23:58N 28°09' W 015°25'0 0.0
2017-Oct-14 23:19N 28°09' W 015°25'0 0.0
2017-Oct-14 22:49N 28°09' W 015°25'0 0.0
2017-Oct-14 22:19N 28°09' W 015°25'0 0.0
2017-Oct-14 21:49N 28°09' W 015°25'0 0.0
2017-Oct-14 21:22N 28°09' W 015°25'0 0.0
2017-Oct-14 20:52N 28°09' W 015°25'0 0.0
2017-Oct-14 20:22N 28°09' W 015°25'0 0.0
2017-Oct-14 19:52N 28°09' W 015°25'0 0.0
2017-Oct-14 19:19N 28°09' W 015°25'0 0.0
2017-Oct-14 18:52N 28°09' W 015°25'0 0.0
2017-Oct-14 18:22N 28°09' W 015°25'0 0.0
2017-Oct-14 17:52N 28°09' W 015°25'0 0.0
2017-Oct-14 17:21N 28°09' W 015°25'0 0.0
2017-Oct-14 16:52N 28°09' W 015°25'0 0.0
2017-Oct-14 16:24N 28°09' W 015°25'0 0.0
2017-Oct-14 15:54N 28°09' W 015°25'0 0.0
2017-Oct-14 15:24N 28°09' W 015°25'0 0.0
2017-Oct-14 14:51N 28°09' W 015°25'0 0.0
2017-Oct-14 14:21N 28°09' W 015°25'0 0.0
2017-Oct-14 13:54N 28°09' W 015°25'0 0.0
2017-Oct-14 13:24N 28°09' W 015°25'0 0.0
2017-Oct-14 12:54N 28°09' W 015°25'0 0.0
2017-Oct-14 12:24N 28°09' W 015°25'0 0.0
2017-Oct-14 11:54N 28°09' W 015°25'0 0.0
2017-Oct-14 11:24N 28°09' W 015°25'0 0.0
2017-Oct-14 10:57N 28°09' W 015°25'0 0.0
2017-Oct-14 10:27N 28°09' W 015°25'0 0.0
2017-Oct-14 09:54N 28°09' W 015°25'0 0.0
2017-Oct-14 09:24N 28°09' W 015°25'0 0.0
2017-Oct-14 08:42N 28°09' W 015°25'0 0.0
2017-Oct-14 08:27N 28°09' W 015°25'0 0.0
2017-Oct-14 07:57N 28°09' W 015°25'0 0.0
2017-Oct-14 07:27N 28°09' W 015°25'0 0.0
2017-Oct-14 06:57N 28°09' W 015°25'0 0.0
2017-Oct-14 06:30N 28°09' W 015°25'0 0.0
2017-Oct-14 06:00N 28°09' W 015°25'0 0.0
2017-Oct-14 05:30N 28°09' W 015°25'0 0.0
2017-Oct-14 04:54N 28°09' W 015°25'0 0.0
2017-Oct-14 04:30N 28°09' W 015°25'0 0.0
2017-Oct-14 04:00N 28°09' W 015°25'0 0.0
2017-Oct-14 03:30N 28°09' W 015°25'0 0.0
2017-Oct-14 02:45N 28°09' W 015°25'0 0.0
2017-Oct-14 02:15N 28°09' W 015°25'0 0.0
2017-Oct-14 02:00N 28°09' W 015°25'0 0.0
2017-Oct-14 01:30N 28°09' W 015°25'0 0.0
2017-Oct-14 01:00N 28°09' W 015°25'0 0.0
2017-Oct-14 00:27N 28°09' W 015°25'0 0.0
2017-Oct-14 00:00N 28°09' W 015°25'0 0.0
2017-Oct-13 23:30N 28°09' W 015°25'0 0.0
2017-Oct-13 23:00N 28°09' W 015°25'0 0.0
2017-Oct-13 22:30N 28°09' W 015°25'0 0.0
2017-Oct-13 21:48N 28°09' W 015°25'0 0.0
2017-Oct-13 21:30N 28°09' W 015°25'0 0.0
2017-Oct-13 20:45N 28°09' W 015°25'0 0.0
2017-Oct-13 20:21N 28°09' W 015°25'0 0.0
2017-Oct-13 20:00N 28°09' W 015°25'0 0.0
2017-Oct-13 19:30N 28°09' W 015°25'0 0.0
2017-Oct-13 19:00N 28°09' W 015°25'0 0.0
2017-Oct-13 18:30N 28°09' W 015°25'0 0.0
2017-Oct-13 17:51N 28°09' W 015°25'0 0.0
2017-Oct-13 17:21N 28°09' W 015°25'0 0.0
2017-Oct-13 16:48N 28°09' W 015°25'0 0.0
2017-Oct-13 16:21N 28°09' W 015°25'0 0.0
2017-Oct-13 15:48N 28°09' W 015°25'0 0.0
2017-Oct-13 15:24N 28°09' W 015°25'0 0.0
2017-Oct-13 14:54N 28°09' W 015°25'0 0.0
2017-Oct-13 14:21N 28°09' W 015°25'0 0.0
2017-Oct-13 13:54N 28°09' W 015°25'0 0.0
2017-Oct-13 13:21N 28°09' W 015°25'0 0.0
2017-Oct-13 12:54N 28°09' W 015°25'0 0.0
2017-Oct-13 12:24N 28°09' W 015°25'0 0.0
2017-Oct-13 11:54N 28°09' W 015°25'0 0.0
2017-Oct-13 11:21N 28°09' W 015°25'0 0.0
2017-Oct-13 10:57N 28°09' W 015°25'0 0.0
2017-Oct-13 10:27N 28°09' W 015°25'0 0.0
2017-Oct-13 09:57N 28°09' W 015°25'0 0.0
2017-Oct-13 09:24N 28°09' W 015°25'0 0.0
2017-Oct-13 08:42N 28°09' W 015°25'0 0.0
2017-Oct-13 08:27N 28°09' W 015°25'0 0.0
2017-Oct-13 07:57N 28°09' W 015°25'0 0.0
2017-Oct-13 07:27N 28°09' W 015°25'0 0.0
2017-Oct-13 07:00N 28°09' W 015°25'0 0.0
2017-Oct-13 06:30N 28°09' W 015°25'0 0.0
2017-Oct-13 06:00N 28°09' W 015°25'0 0.0
2017-Oct-13 05:29N 28°09' W 015°25'0 0.0
2017-Oct-13 04:59N 28°09' W 015°25'0 0.0
2017-Oct-13 04:29N 28°09' W 015°25'0 0.0
2017-Oct-13 03:59N 28°09' W 015°25'0 0.0
2017-Oct-13 03:29N 28°09' W 015°25'0 0.0
2017-Oct-13 02:59N 28°09' W 015°25'0 0.0
2017-Oct-13 02:14N 28°09' W 015°25'0 0.0
2017-Oct-13 01:59N 28°09' W 015°25'0 0.0
2017-Oct-13 01:29N 28°09' W 015°25'0 0.0
2017-Oct-13 00:59N 28°09' W 015°25'0 0.0
2017-Oct-13 00:29N 28°09' W 015°25'0 0.0
2017-Oct-12 23:59N 28°09' W 015°25'0 0.0
2017-Oct-12 23:29N 28°09' W 015°25'0 0.0
2017-Oct-12 22:47N 28°09' W 015°25'0 0.0
2017-Oct-12 22:29N 28°09' W 015°25'0 0.0
2017-Oct-12 21:59N 28°09' W 015°25'0 0.0
2017-Oct-12 21:17N 28°09' W 015°25'0 0.0
2017-Oct-12 20:59N 28°09' W 015°25'0 0.0
2017-Oct-12 20:14N 28°09' W 015°25'0 0.0
2017-Oct-12 19:50N 28°09' W 015°25'0 0.0
2017-Oct-12 19:29N 28°09' W 015°25'0 0.0
2017-Oct-12 18:59N 28°09' W 015°25'0 0.0
2017-Oct-12 18:29N 28°09' W 015°25'0 0.0
2017-Oct-12 17:59N 28°09' W 015°25'0 0.0
2017-Oct-12 17:20N 28°09' W 015°25'0 0.0
2017-Oct-12 16:50N 28°09' W 015°25'0 0.0
2017-Oct-12 16:20N 28°09' W 015°25'0 0.0
2017-Oct-12 15:50N 28°09' W 015°25'0 0.0
2017-Oct-12 15:23N 28°09' W 015°25'0 0.0
2017-Oct-12 14:50N 28°09' W 015°25'0 0.0
2017-Oct-12 14:23N 28°09' W 015°25'0 0.0
2017-Oct-12 13:50N 28°09' W 015°25'0 0.0
2017-Oct-12 13:23N 28°09' W 015°25'0 0.0
2017-Oct-12 12:53N 28°09' W 015°25'0 0.0
2017-Oct-12 12:23N 28°09' W 015°25'0 0.0
2017-Oct-12 11:53N 28°09' W 015°25'0 0.0
2017-Oct-12 11:23N 28°09' W 015°25'0 0.0
2017-Oct-12 10:50N 28°09' W 015°25'0 0.0
2017-Oct-12 10:26N 28°09' W 015°25'0 0.0
2017-Oct-12 09:56N 28°09' W 015°25'0 0.0
2017-Oct-12 09:26N 28°09' W 015°25'0 0.0
2017-Oct-12 08:50N 28°09' W 015°25'0 0.0
2017-Oct-12 08:26N 28°09' W 015°25'0 0.0
2017-Oct-12 07:56N 28°09' W 015°25'0 0.0
2017-Oct-12 07:26N 28°09' W 015°25'0 0.0
2017-Oct-12 06:56N 28°09' W 015°25'0 0.0
2017-Oct-12 06:23N 28°09' W 015°25'0 0.0
2017-Oct-12 05:56N 28°09' W 015°25'0 0.0
2017-Oct-12 05:29N 28°09' W 015°25'0 0.0
2017-Oct-12 04:56N 28°09' W 015°25'0 0.0
2017-Oct-12 04:29N 28°09' W 015°25'0 0.0
2017-Oct-12 03:59N 28°09' W 015°25'0 0.0
2017-Oct-12 03:29N 28°09' W 015°25'0 0.0
2017-Oct-12 02:59N 28°09' W 015°25'0 0.0
2017-Oct-12 02:29N 28°09' W 015°25'0 0.0
2017-Oct-12 01:59N 28°09' W 015°25'0 0.0
2017-Oct-12 01:29N 28°09' W 015°25'0 0.0
2017-Oct-12 00:44N 28°09' W 015°25'0 0.0
2017-Oct-12 00:29N 28°09' W 015°25'0 0.0
2017-Oct-11 23:59N 28°09' W 015°25'0 0.0
2017-Oct-11 23:26N 28°09' W 015°25'0 0.0
2017-Oct-11 22:59N 28°09' W 015°25'0 0.0
2017-Oct-11 22:29N 28°09' W 015°25'0 0.0
2017-Oct-11 21:02N 28°09' W 015°25'0 0.0
2017-Oct-11 20:47N 28°09' W 015°25'0 0.0
2017-Oct-11 20:29N 28°09' W 015°25'0 0.0
2017-Oct-11 19:59N 28°09' W 015°25'0 0.0
2017-Oct-11 19:29N 28°09' W 015°25'0 0.0
2017-Oct-11 18:44N 28°09' W 015°25'0 0.0
2017-Oct-11 18:14N 28°09' W 015°25'0 0.0
2017-Oct-11 17:58N 28°09' W 015°25'0 0.0
2017-Oct-11 17:19N 28°09' W 015°25'0 0.0
2017-Oct-11 16:49N 28°09' W 015°25'0 0.0
2017-Oct-10 23:58N 28°09' W 015°25'0 0.0
2017-Oct-10 23:28N 28°09' W 015°25'0 0.0
2017-Oct-10 22:46N 28°09' W 015°25'0 0.0
2017-Oct-10 22:28N 28°09' W 015°25'0 0.0
2017-Oct-10 21:46N 28°09' W 015°25'0 0.0
2017-Oct-10 21:16N 28°09' W 015°25'0 0.0
2017-Oct-10 20:58N 28°09' W 015°25'0 0.0
2017-Oct-10 20:28N 28°09' W 015°25'0 0.0
2017-Oct-10 19:58N 28°09' W 015°25'0 0.0
2017-Oct-10 19:28N 28°09' W 015°25'0 0.0
2017-Oct-10 18:58N 28°09' W 015°25'0 0.0
2017-Oct-10 18:28N 28°09' W 015°25'0 0.0
2017-Oct-10 17:58N 28°09' W 015°25'0 0.0
2017-Oct-10 17:28N 28°09' W 015°25'0 0.0
2017-Oct-10 16:49N 28°09' W 015°25'0 0.0
2017-Oct-10 16:19N 28°09' W 015°25'0 0.0
2017-Oct-10 15:49N 28°09' W 015°25'0 0.0
2017-Oct-10 15:19N 28°09' W 015°25'0 0.0
2017-Oct-10 14:52N 28°09' W 015°25'0 0.0
2017-Oct-10 13:52N 28°09' W 015°25'0 0.0
2017-Oct-10 13:22N 28°09' W 015°25'0 0.0
2017-Oct-10 12:52N 28°09' W 015°25'0 0.0
2017-Oct-10 12:22N 28°09' W 015°25'0 0.0
2017-Oct-10 11:49N 28°09' W 015°25'0 0.0
2017-Oct-10 11:19N 28°09' W 015°25'0 0.0
2017-Oct-10 10:52N 28°09' W 015°25'0 0.0
2017-Oct-10 10:22N 28°09' W 015°25'0 0.0
2017-Oct-10 09:52N 28°09' W 015°25'0 0.0
2017-Oct-10 09:19N 28°09' W 015°25'0 0.0
2017-Oct-10 08:37N 28°09' W 015°25'0 0.0
2017-Oct-10 08:22N 28°09' W 015°25'0 0.0
2017-Oct-10 07:55N 28°09' W 015°25'0 0.0
2017-Oct-10 07:25N 28°09' W 015°25'0 0.0
2017-Oct-10 06:55N 28°09' W 015°25'0 0.0
2017-Oct-10 06:24N 28°09' W 015°25'0 0.0
2017-Oct-10 05:39N 28°09' W 015°25'0 0.0
2017-Oct-10 05:21N 28°09' W 015°25'0 0.0
2017-Oct-10 04:57N 28°09' W 015°25'0 0.0
2017-Oct-10 04:21N 28°09' W 015°25'0 0.0
2017-Oct-10 03:57N 28°09' W 015°25'0 0.0
2017-Oct-10 03:27N 28°09' W 015°25'0 0.0
2017-Oct-10 02:54N 28°09' W 015°25'0 0.0
2017-Oct-10 02:27N 28°09' W 015°25'0 0.0
2017-Oct-10 01:57N 28°09' W 015°25'0 0.0
2017-Oct-10 01:27N 28°09' W 015°25'0 0.0
2017-Oct-10 00:57N 28°09' W 015°25'0 0.0
2017-Oct-10 00:24N 28°09' W 015°25'0 0.0
2017-Oct-09 23:57N 28°09' W 015°25'0 0.0
2017-Oct-09 23:30N 28°09' W 015°25'0 0.0
2017-Oct-09 23:00N 28°09' W 015°25'0 0.0
2017-Oct-09 22:30N 28°09' W 015°25'0 0.0
2017-Oct-09 21:57N 28°09' W 015°25'0 0.0
2017-Oct-09 21:30N 28°09' W 015°25'0 0.0
2017-Oct-09 21:00N 28°09' W 015°25'0 0.0
2017-Oct-09 20:30N 28°09' W 015°25'0 0.0
2017-Oct-09 20:00N 28°09' W 015°25'0 0.0
2017-Oct-09 19:30N 28°09' W 015°25'0 0.0
2017-Oct-09 19:00N 28°09' W 015°25'0 0.0
2017-Oct-09 18:30N 28°09' W 015°25'0 0.0
2017-Oct-09 18:00N 28°09' W 015°25'0 0.0
2017-Oct-09 17:18N 28°09' W 015°25'0 0.0
2017-Oct-09 16:57N 28°09' W 015°25'0 0.0
2017-Oct-09 16:30N 28°09' W 015°25'0 0.0
2017-Oct-09 15:48N 28°09' W 015°25'0 0.0
2017-Oct-09 15:30N 28°09' W 015°25'0 0.0
2017-Oct-09 15:00N 28°09' W 015°25'0 0.0
2017-Oct-09 14:30N 28°09' W 015°25'0 0.0
2017-Oct-09 14:00N 28°09' W 015°25'0 0.0
2017-Oct-09 13:30N 28°09' W 015°25'0 0.0
2017-Oct-09 13:00N 28°09' W 015°25'0 0.0
2017-Oct-09 12:30N 28°09' W 015°25'0 0.0
2017-Oct-09 12:00N 28°09' W 015°25'0 0.0
2017-Oct-09 11:30N 28°09' W 015°25'0 0.0
2017-Oct-09 10:51N 28°09' W 015°25'0 0.0
2017-Oct-09 10:21N 28°09' W 015°25'0 0.0
2017-Oct-09 09:48N 28°09' W 015°25'0 0.0
2017-Oct-09 09:21N 28°09' W 015°25'0 0.0
2017-Oct-09 08:51N 28°09' W 015°25'0 0.0
2017-Oct-09 08:24N 28°09' W 015°25'0 0.0
2017-Oct-09 07:54N 28°09' W 015°25'0 0.0
2017-Oct-09 07:21N 28°09' W 015°25'0 0.0
2017-Oct-09 06:54N 28°09' W 015°25'0 0.0
2017-Oct-09 06:24N 28°09' W 015°25'0 0.0
2017-Oct-09 05:51N 28°09' W 015°25'0 0.0
2017-Oct-09 05:24N 28°09' W 015°25'0 0.0
2017-Oct-09 04:54N 28°09' W 015°25'0 0.0
2017-Oct-09 04:27N 28°09' W 015°25'0 0.0
2017-Oct-09 03:54N 28°09' W 015°25'0 0.0
2017-Oct-09 03:27N 28°09' W 015°25'0 0.0
2017-Oct-09 02:57N 28°09' W 015°25'0 0.0
2017-Oct-09 02:27N 28°09' W 015°25'0 0.0
2017-Oct-09 01:54N 28°09' W 015°25'0 0.0
2017-Oct-09 01:27N 28°09' W 015°25'0 0.0
2017-Oct-09 00:54N 28°09' W 015°25'0 0.0
2017-Oct-09 00:24N 28°09' W 015°25'0 0.0
2017-Oct-08 23:54N 28°09' W 015°25'0 0.0
2017-Oct-08 23:30N 28°09' W 015°25'0 0.0
2017-Oct-08 22:57N 28°09' W 015°25'0 0.0
2017-Oct-08 22:27N 28°09' W 015°25'0 0.0
2017-Oct-08 22:00N 28°09' W 015°25'0 0.0
2017-Oct-08 21:30N 28°09' W 015°25'0 0.0
2017-Oct-08 21:00N 28°09' W 015°25'0 0.0
2017-Oct-08 20:30N 28°09' W 015°25'0 0.0
2017-Oct-08 19:57N 28°09' W 015°25'0 0.0
2017-Oct-08 19:30N 28°09' W 015°25'0 0.0
2017-Oct-08 19:00N 28°09' W 015°25'  

Dump ship's entire track history